Time;durP1;ratioP1;P1;durP2;ratioP2;P2;SDS_P1;SDS_P2;PMS_P1;PMS_P2;Temp;Humidity;BMP_temperature;BMP_pressure;BME280_temperature;BME280_humidity;BME280_pressure;Samples;Min_cycle;Max_cycle;Signal;HPM_P1;HPM_P2
2023/06/23 00:02:21;;;;;;;24.57;22.30;;;18.20;99.90;;;;;;5051960;28;20826;-93
2023/06/23 00:04:46;;;;;;;25.55;23.25;;;18.10;99.90;;;;;;5054028;28;20752;-94
2023/06/23 00:07:12;;;;;;;27.90;25.20;;;18.00;99.90;;;;;;5051711;28;20413;-93
2023/06/23 00:09:37;;;;;;;26.60;24.10;;;18.00;99.90;;;;;;5053451;28;20442;-94
2023/06/23 00:12:07;;;;;;;28.37;25.77;;;18.10;99.90;;;;;;5052297;28;20405;-94
2023/06/23 00:14:34;;;;;;;26.35;23.88;;;17.90;99.90;;;;;;5053136;28;20413;-93
2023/06/23 00:17:00;;;;;;;28.02;25.52;;;17.90;99.90;;;;;;5053714;28;20548;-93
2023/06/23 00:19:26;;;;;;;27.27;24.60;;;17.90;99.90;;;;;;5052033;28;20726;-92
2023/06/23 00:21:55;;;;;;;25.40;23.00;;;18.00;99.90;;;;;;5053880;28;20445;-92
2023/06/23 00:24:21;;;;;;;27.92;25.40;;;17.90;99.90;;;;;;5051591;28;20436;-94
2023/06/23 00:26:47;;;;;;;26.17;23.70;;;17.90;99.90;;;;;;5054421;28;20402;-93
2023/06/23 00:29:12;;;;;;;26.93;24.37;;;17.90;99.90;;;;;;5052107;28;20429;-93
2023/06/23 00:31:38;;;;;;;25.83;23.35;;;17.90;99.90;;;;;;5053685;28;20416;-93
2023/06/23 00:34:04;;;;;;;25.53;23.13;;;17.80;99.90;;;;;;5053280;28;20526;-92
2023/06/23 00:36:30;;;;;;;22.70;20.60;;;18.10;99.90;;;;;;5052009;28;20409;-93
2023/06/23 00:38:56;;;;;;;24.75;22.30;;;17.90;99.90;;;;;;5054124;28;20406;-92
2023/06/23 00:41:22;;;;;;;24.90;22.40;;;18.00;99.90;;;;;;5051982;28;20489;-94
2023/06/23 00:43:50;;;;;;;25.45;23.13;;;17.90;99.90;;;;;;5054170;28;21040;-93
2023/06/23 00:46:19;;;;;;;25.75;23.15;;;17.90;99.90;;;;;;5051932;28;20406;-93
2023/06/23 00:48:45;;;;;;;28.13;25.40;;;18.00;99.90;;;;;;5053580;28;20433;-93
2023/06/23 00:51:11;;;;;;;30.30;27.27;;;17.90;99.90;;;;;;5052807;28;20394;-92
2023/06/23 00:53:38;;;;;;;29.80;27.00;;;17.80;99.90;;;;;;5052004;28;20440;-93
2023/06/23 00:56:05;;;;;;;29.65;26.73;;;17.90;99.90;;;;;;5053942;28;20409;-92
2023/06/23 00:58:34;;;;;;;28.50;25.83;;;17.90;99.90;;;;;;5051165;28;20394;-92
2023/06/23 01:01:00;;;;;;;27.50;24.88;;;17.70;99.90;;;;;;5056419;28;20402;-92
2023/06/23 01:03:26;;;;;;;28.13;25.13;;;17.40;99.90;;;;;;5055218;28;20410;-93
2023/06/23 01:05:52;;;;;;;27.10;24.50;;;17.80;99.90;;;;;;5056943;28;20406;-91
2023/06/23 01:08:33;;;;;;;25.60;23.02;;;17.70;99.90;;;;;;5056202;28;20462;-92
2023/06/23 01:11:08;;;;;;;26.13;23.55;;;17.60;99.90;;;;;;5055193;28;20440;-94
2023/06/23 01:13:44;;;;;;;22.75;20.58;;;17.50;99.90;;;;;;5056952;28;20448;-94
2023/06/23 01:16:21;;;;;;;21.30;19.17;;;17.20;99.90;;;;;;5054899;28;20816;-91
2023/06/23 01:19:09;;;;;;;21.25;19.02;;;17.70;99.90;;;;;;5056997;28;20929;-94
2023/06/23 01:22:00;;;;;;;20.33;18.30;;;17.40;99.90;;;;;;5056406;28;20414;-93
2023/06/23 01:24:55;;;;;;;17.55;15.77;;;17.30;99.90;;;;;;5055271;28;20414;-92
2023/06/23 01:27:59;;;;;;;18.08;16.33;;;17.30;99.90;;;;;;5038836;28;20421;-92
2023/06/23 01:30:28;;;;;;;17.63;15.88;;;17.20;99.90;;;;;;5056508;28;20416;-93
2023/06/23 01:33:02;;;;;;;18.83;16.43;;;17.40;99.90;;;;;;5052979;28;20441;-92
2023/06/23 01:35:32;;;;;;;17.40;15.70;;;17.30;99.90;;;;;;5056032;28;20402;-93
2023/06/23 01:38:14;;;;;;;17.00;15.40;;;17.10;99.90;;;;;;5053752;28;20800;-92
2023/06/23 01:40:42;;;;;;;17.13;15.43;;;16.90;99.90;;;;;;5055801;28;20402;-92
2023/06/23 01:43:11;;;;;;;17.60;15.80;;;16.90;99.90;;;;;;5056302;28;20766;-92
2023/06/23 01:45:39;;;;;;;18.10;15.52;;;16.80;99.90;;;;;;5054112;28;20397;-92
2023/06/23 01:48:08;;;;;;;18.05;16.25;;;16.90;99.90;;;;;;5056386;28;20453;-93
2023/06/23 01:50:34;;;;;;;18.55;16.48;;;17.00;99.90;;;;;;5054506;28;20402;-94
2023/06/23 01:53:02;;;;;;;20.03;17.50;;;16.90;99.90;;;;;;5056646;28;20398;-92
2023/06/23 01:55:29;;;;;;;18.52;16.65;;;16.60;99.90;;;;;;5054408;28;20434;-91
2023/06/23 01:57:56;;;;;;;18.88;16.90;;;16.30;99.90;;;;;;5056214;28;20975;-92
2023/06/23 02:00:22;;;;;;;19.00;17.13;;;16.60;99.90;;;;;;5055579;28;20413;-93
2023/06/23 02:02:51;;;;;;;20.02;17.92;;;16.80;99.90;;;;;;5054109;28;20422;-92
2023/06/23 02:05:22;;;;;;;18.95;17.05;;;16.50;99.90;;;;;;5056069;28;20394;-93
2023/06/23 02:07:50;;;;;;;21.77;18.42;;;16.50;99.90;;;;;;5053753;28;20484;-95
2023/06/23 02:10:17;;;;;;;20.08;18.10;;;16.40;99.90;;;;;;5056092;28;20443;-93
2023/06/23 02:12:45;;;;;;;19.45;17.58;;;16.60;99.90;;;;;;5053233;28;20429;-92
2023/06/23 02:15:14;;;;;;;20.88;18.88;;;16.40;99.90;;;;;;5055677;28;20398;-93
2023/06/23 02:17:41;;;;;;;20.60;18.60;;;16.50;99.90;;;;;;5055922;28;20414;-92
2023/06/23 02:20:16;;;;;;;19.83;17.83;;;16.50;99.90;;;;;;5054133;28;20906;-93
2023/06/23 02:22:46;;;;;;;19.15;17.13;;;16.30;99.90;;;;;;5056116;28;20406;-92
2023/06/23 02:25:13;;;;;;;17.15;15.18;;;16.40;99.90;;;;;;5053576;28;20937;-92
2023/06/23 02:27:40;;;;;;;18.98;17.17;;;16.30;99.90;;;;;;5055660;28;20441;-91
2023/06/23 02:30:07;;;;;;;19.20;17.25;;;16.20;99.90;;;;;;5054758;28;20475;-93
2023/06/23 02:32:33;;;;;;;18.58;16.58;;;16.20;99.90;;;;;;5055104;28;20410;-92
2023/06/23 02:34:59;;;;;;;20.60;18.60;;;16.20;99.90;;;;;;5055032;28;20406;-93
2023/06/23 02:37:26;;;;;;;21.02;18.73;;;16.20;99.90;;;;;;5053823;28;20499;-94
2023/06/23 02:39:58;;;;;;;22.58;20.17;;;16.20;99.90;;;;;;5055382;28;20401;-93
2023/06/23 02:42:31;;;;;;;21.33;19.13;;;16.50;99.90;;;;;;5053372;28;20904;-92
2023/06/23 02:45:05;;;;;;;23.00;20.60;;;16.10;99.90;;;;;;5055501;28;20402;-92
2023/06/23 02:47:36;;;;;;;23.27;20.90;;;16.10;99.90;;;;;;5053692;28;20945;-92
2023/06/23 02:50:06;;;;;;;21.00;19.00;;;16.20;99.90;;;;;;5054621;28;20805;-93
2023/06/23 02:52:37;;;;;;;25.67;23.05;;;16.10;99.90;;;;;;5055091;28;20406;-93
2023/06/23 02:55:06;;;;;;;24.50;21.80;;;16.30;99.90;;;;;;5053046;28;20812;-93
2023/06/23 02:57:33;;;;;;;25.50;23.00;;;16.00;99.90;;;;;;5055207;28;20398;-93
2023/06/23 03:00:01;;;;;;;27.27;24.48;;;16.00;99.90;;;;;;5052878;28;20746;-92
2023/06/23 03:02:29;;;;;;;27.30;24.50;;;16.00;99.90;;;;;;5054988;28;20448;-92
2023/06/23 03:04:57;;;;;;;30.15;27.15;;;15.90;99.90;;;;;;5053903;28;20477;-93
2023/06/23 03:07:23;;;;;;;24.50;22.10;;;16.00;99.90;;;;;;5053311;28;20410;-91
2023/06/23 03:09:50;;;;;;;24.92;22.35;;;15.90;99.90;;;;;;5054676;28;20808;-92
2023/06/23 03:12:16;;;;;;;27.55;24.95;;;15.90;99.90;;;;;;5052499;28;20433;-92
2023/06/23 03:14:44;;;;;;;28.38;25.40;;;15.70;99.90;;;;;;5055084;28;20402;-94
2023/06/23 03:17:17;;;;;;;28.45;25.52;;;16.20;99.90;;;;;;5052329;28;20406;-92
2023/06/23 03:20:00;;;;;;;28.77;26.05;;;15.80;99.90;;;;;;5054919;28;20726;-92
2023/06/23 03:22:43;;;;;;;30.85;27.65;;;15.70;99.90;;;;;;5054089;28;20409;-93
2023/06/23 03:25:17;;;;;;;28.25;25.45;;;15.70;99.90;;;;;;5052606;28;20496;-92
2023/06/23 03:27:44;;;;;;;29.40;26.47;;;15.50;99.90;;;;;;5054391;28;20421;-94
2023/06/23 03:30:14;;;;;;;30.80;27.67;;;15.50;99.90;;;;;;5052231;28;21022;-93
2023/06/23 03:32:45;;;;;;;37.73;33.67;;;15.70;99.90;;;;;;5053958;28;20417;-92
2023/06/23 03:35:15;;;;;;;31.15;28.08;;;15.60;99.90;;;;;;5053336;28;20468;-92
2023/06/23 03:37:54;;;;;;;30.50;27.50;;;15.50;99.90;;;;;;5053522;28;20455;-92
2023/06/23 03:40:22;;;;;;;30.77;27.70;;;15.50;99.90;;;;;;5054430;28;20406;-93
2023/06/23 03:42:54;;;;;;;31.70;28.30;;;15.50;99.90;;;;;;5052141;28;20451;-93
2023/06/23 03:45:23;;;;;;;29.90;27.00;;;15.60;99.90;;;;;;5053897;28;20398;-93
2023/06/23 03:47:56;;;;;;;32.13;28.73;;;15.50;99.90;;;;;;5052485;28;20521;-92
2023/06/23 03:50:26;;;;;;;35.53;31.73;;;15.50;99.90;;;;;;5053828;28;20837;-93
2023/06/23 03:52:54;;;;;;;33.65;30.20;;;15.40;99.90;;;;;;5054288;28;20408;-92
2023/06/23 03:55:22;;;;;;;33.53;30.02;;;15.50;99.90;;;;;;5052055;28;20842;-93
2023/06/23 03:57:50;;;;;;;33.88;30.48;;;15.50;99.90;;;;;;5054099;28;20463;-92
2023/06/23 04:00:18;;;;;;;38.05;33.90;;;15.50;99.90;;;;;;5051831;28;20394;-93
2023/06/23 04:02:46;;;;;;;37.35;33.35;;;15.30;99.90;;;;;;5054425;28;20844;-93
2023/06/23 04:05:13;;;;;;;36.70;32.78;;;15.30;99.90;;;;;;5052813;28;20398;-92
2023/06/23 04:07:40;;;;;;;39.40;35.13;;;15.20;99.90;;;;;;5053427;28;20809;-93
2023/06/23 04:10:07;;;;;;;41.83;37.10;;;15.40;99.90;;;;;;5054110;28;20497;-92
2023/06/23 04:12:35;;;;;;;36.63;32.83;;;15.30;99.90;;;;;;5051914;28;20413;-92
2023/06/23 04:15:04;;;;;;;38.33;34.28;;;15.50;99.90;;;;;;5053932;28;20398;-92
2023/06/23 04:17:33;;;;;;;37.00;33.00;;;15.30;99.90;;;;;;5051627;28;20395;-93
2023/06/23 04:20:01;;;;;;;37.17;33.15;;;15.40;99.90;;;;;;5054258;28;20416;-93
2023/06/23 04:22:27;;;;;;;33.80;30.20;;;15.50;99.90;;;;;;5052075;28;20398;-93
2023/06/23 04:24:56;;;;;;;35.63;31.42;;;15.50;99.90;;;;;;5053019;28;20999;-92
2023/06/23 04:27:24;;;;;;;29.15;26.15;;;15.40;99.90;;;;;;5053667;28;20394;-92
2023/06/23 04:29:53;;;;;;;31.60;28.13;;;15.70;99.90;;;;;;5052003;28;20398;-92
2023/06/23 04:32:21;;;;;;;33.07;29.47;;;15.50;99.90;;;;;;5053741;28;20409;-93
2023/06/23 04:34:47;;;;;;;35.63;30.65;;;15.40;99.90;;;;;;5052810;28;20747;-92
2023/06/23 04:37:50;;;;;;;33.10;29.48;;;15.60;99.90;;;;;;5057510;28;20401;-92
2023/06/23 04:40:30;;;;;;;35.05;31.20;;;15.50;99.90;;;;;;5057151;28;20405;-92
2023/06/23 04:43:13;;;;;;;34.85;31.15;;;15.50;99.90;;;;;;5055802;28;20442;-91
2023/06/23 04:46:16;;;;;;;36.13;31.95;;;15.60;99.90;;;;;;5057361;28;20471;-92
2023/06/23 04:48:58;;;;;;;34.63;30.92;;;15.60;99.90;;;;;;5052957;28;20919;-93
2023/06/23 04:51:31;;;;;;;33.60;30.10;;;15.60;99.90;;;;;;5052417;28;20714;-92
2023/06/23 04:54:03;;;;;;;32.75;29.25;;;15.90;99.90;;;;;;5054022;28;20406;-92
2023/06/23 04:56:32;;;;;;;33.30;29.75;;;16.00;99.90;;;;;;5051979;28;20483;-94
2023/06/23 04:59:03;;;;;;;30.45;27.02;;;16.10;99.90;;;;;;5053455;28;20996;-89
2023/06/23 05:01:31;;;;;;;30.70;27.50;;;16.30;99.90;;;;;;5052465;28;20425;-90
2023/06/23 05:04:00;;;;;;;28.27;25.40;;;16.20;99.90;;;;;;5051849;28;20908;-91
2023/06/23 05:06:28;;;;;;;27.80;24.88;;;16.30;99.90;;;;;;5053152;28;20508;-89
2023/06/23 05:08:56;;;;;;;26.97;24.07;;;16.40;99.90;;;;;;5051008;28;20786;-89
2023/06/23 05:11:23;;;;;;;26.83;24.13;;;16.50;99.90;;;;;;5052696;28;20404;-89
2023/06/23 05:13:51;;;;;;;26.92;24.13;;;16.40;99.90;;;;;;5067193;28;20407;-90
2023/06/23 05:16:17;;;;;;;28.03;25.03;;;16.50;99.90;;;;;;5052296;28;20400;-90
2023/06/23 05:18:45;;;;;;;26.92;24.17;;;16.10;99.90;;;;;;5051059;28;20403;-88
2023/06/23 05:21:13;;;;;;;25.38;22.83;;;16.40;99.90;;;;;;5053955;28;20445;-89
2023/06/23 05:23:41;;;;;;;29.45;25.23;;;16.50;99.90;;;;;;5055225;28;20410;-89
2023/06/23 05:26:10;;;;;;;26.48;23.67;;;16.50;99.90;;;;;;5053386;28;20754;-89
2023/06/23 05:28:37;;;;;;;24.58;21.98;;;16.70;99.90;;;;;;5055471;28;20422;-88
2023/06/23 05:31:06;;;;;;;26.30;22.88;;;16.80;99.90;;;;;;5053985;28;20767;-90
2023/06/23 05:33:39;;;;;;;26.23;23.50;;;16.90;99.90;;;;;;5055446;28;20410;-90
2023/06/23 05:36:09;;;;;;;25.38;22.77;;;17.00;99.90;;;;;;5071554;28;20712;-88
2023/06/23 05:38:36;;;;;;;24.77;22.27;;;17.20;99.90;;;;;;5054941;28;20797;-90
2023/06/23 05:41:03;;;;;;;22.67;20.48;;;17.20;99.90;;;;;;5055418;28;20476;-89
2023/06/23 05:43:28;;;;;;;21.95;19.75;;;17.70;99.90;;;;;;5053724;28;20398;-91
2023/06/23 05:45:55;;;;;;;21.83;19.67;;;18.10;99.90;;;;;;5072044;28;20436;-90
2023/06/23 05:48:28;;;;;;;23.45;20.63;;;18.10;99.90;;;;;;5053014;28;20432;-91
2023/06/23 05:51:01;;;;;;;19.38;17.38;;;18.30;99.90;;;;;;5055598;28;20961;-89
2023/06/23 05:53:30;;;;;;;20.13;18.02;;;18.40;99.90;;;;;;5055055;28;20832;-90
2023/06/23 05:56:13;;;;;;;19.27;17.27;;;18.40;99.90;;;;;;5053857;28;20496;-90
2023/06/23 05:58:44;;;;;;;18.73;16.83;;;18.40;99.90;;;;;;5055742;28;20484;-90
2023/06/23 06:01:14;;;;;;;18.73;16.50;;;18.30;99.90;;;;;;5053550;28;20409;-90
2023/06/23 06:03:46;;;;;;;18.15;16.33;;;18.40;99.90;;;;;;5055851;28;20406;-90
2023/06/23 06:06:13;;;;;;;17.45;15.73;;;18.50;99.90;;;;;;5054347;28;20413;-90
2023/06/23 06:08:41;;;;;;;16.70;15.10;;;18.90;99.90;;;;;;5054719;28;20426;-91
2023/06/23 06:11:10;;;;;;;15.88;14.38;;;19.00;99.90;;;;;;5051222;28;20411;-91
2023/06/23 06:13:43;;;;;;;15.63;14.02;;;19.30;99.90;;;;;;5050023;28;20455;-91
2023/06/23 06:16:09;;;;;;;14.45;13.05;;;19.30;99.90;;;;;;5051816;28;20400;-90
2023/06/23 06:18:37;;;;;;;12.60;10.68;;;19.80;99.90;;;;;;5049597;28;20481;-89
2023/06/23 06:21:04;;;;;;;10.98;9.52;;;19.90;99.90;;;;;;5068105;28;20399;-91
2023/06/23 06:23:32;;;;;;;10.43;9.43;;;20.00;99.90;;;;;;5050443;28;20903;-90
2023/06/23 06:26:00;;;;;;;10.87;9.77;;;20.10;99.90;;;;;;5049668;28;20482;-90
2023/06/23 06:28:27;;;;;;;9.73;8.63;;;20.30;99.90;;;;;;5050890;28;20970;-91
2023/06/23 06:30:56;;;;;;;9.35;7.78;;;20.60;99.90;;;;;;5048740;28;20404;-90
2023/06/23 06:33:23;;;;;;;7.95;7.15;;;20.60;99.90;;;;;;5050792;28;20418;-89
2023/06/23 06:35:51;;;;;;;7.55;6.30;;;20.80;99.90;;;;;;5048787;28;20461;-90
2023/06/23 06:38:18;;;;;;;7.70;6.90;;;21.00;99.90;;;;;;5051279;28;20815;-89
2023/06/23 06:40:49;;;;;;;7.75;6.95;;;21.00;99.90;;;;;;5050105;28;20400;-93
2023/06/23 06:43:15;;;;;;;6.07;5.47;;;21.10;99.90;;;;;;5051092;28;20916;-93
2023/06/23 06:45:41;;;;;;;7.15;6.30;;;21.20;99.90;;;;;;5051815;28;20432;-94
2023/06/23 06:48:09;;;;;;;8.23;6.27;;;21.50;99.90;;;;;;5049253;28;20788;-92
2023/06/23 06:50:35;;;;;;;9.07;8.15;;;21.60;99.90;;;;;;5051817;28;20408;-92
2023/06/23 06:53:02;;;;;;;7.90;7.00;;;21.60;99.90;;;;;;5049177;28;20404;-93
2023/06/23 06:55:28;;;;;;;6.93;6.28;;;21.80;99.90;;;;;;5051429;28;20411;-93
2023/06/23 06:57:54;;;;;;;7.40;6.70;;;21.80;99.90;;;;;;5049535;28;20526;-93
2023/06/23 07:00:22;;;;;;;9.13;7.00;;;21.90;99.90;;;;;;5051144;28;20412;-94
2023/06/23 07:02:49;;;;;;;10.95;9.95;;;21.90;99.90;;;;;;5051231;28;20443;-93
2023/06/23 07:05:16;;;;;;;8.52;7.72;;;22.20;99.90;;;;;;5049802;28;20412;-94
2023/06/23 07:07:42;;;;;;;7.00;6.30;;;22.10;99.90;;;;;;5051080;28;20449;-94
2023/06/23 07:10:08;;;;;;;9.88;8.10;;;22.10;99.90;;;;;;5049402;28;20400;-93
2023/06/23 07:12:34;;;;;;;8.50;7.70;;;22.10;99.90;;;;;;5051086;28;20447;-92
2023/06/23 07:15:00;;;;;;;7.35;6.60;;;22.30;99.90;;;;;;5049538;28;20426;-93
2023/06/23 07:17:26;;;;;;;7.10;6.40;;;22.20;99.90;;;;;;5050629;28;20787;-94
2023/06/23 07:19:52;;;;;;;7.70;6.17;;;22.20;99.90;;;;;;5050670;28;20412;-94
2023/06/23 07:22:19;;;;;;;6.68;5.90;;;22.00;99.90;;;;;;5049617;28;20453;-94
2023/06/23 07:24:44;;;;;;;6.67;5.57;;;22.20;99.90;;;;;;5050772;28;20399;-93
2023/06/23 07:27:10;;;;;;;7.72;6.80;;;22.30;99.90;;;;;;5048008;28;20968;-93
2023/06/23 07:29:36;;;;;;;8.40;7.25;;;22.40;99.90;;;;;;5050720;28;20437;-93
2023/06/23 07:32:02;;;;;;;9.10;8.17;;;22.30;99.90;;;;;;5047516;28;20404;-93
2023/06/23 07:34:28;;;;;;;10.63;9.63;;;22.40;99.90;;;;;;5050491;28;20769;-93
2023/06/23 07:36:55;;;;;;;10.05;9.05;;;22.70;99.90;;;;;;5049022;28;21049;-93
2023/06/23 07:39:20;;;;;;;10.00;9.00;;;22.50;99.90;;;;;;5050135;28;20495;-94
2023/06/23 07:41:46;;;;;;;9.15;8.25;;;22.50;99.90;;;;;;5050829;28;20504;-94
2023/06/23 07:44:12;;;;;;;8.43;7.63;;;22.60;99.90;;;;;;5048981;28;20407;-93
2023/06/23 07:46:37;;;;;;;8.85;6.97;;;22.70;99.90;;;;;;5050580;28;20414;-93
2023/06/23 07:49:03;;;;;;;8.23;7.53;;;22.90;99.90;;;;;;5049016;28;20427;-94
2023/06/23 07:51:29;;;;;;;8.15;7.35;;;23.00;99.90;;;;;;5050707;28;20416;-93
2023/06/23 07:53:55;;;;;;;7.67;6.97;;;23.00;99.90;;;;;;5048992;28;20406;-93
2023/06/23 07:56:21;;;;;;;6.03;5.00;;;23.30;99.90;;;;;;5050350;28;20407;-92
2023/06/23 07:58:46;;;;;;;6.90;6.30;;;23.10;99.90;;;;;;5050012;28;20486;-92
2023/06/23 08:01:12;;;;;;;7.63;6.93;;;23.20;99.90;;;;;;5049144;28;20836;-93
2023/06/23 08:03:38;;;;;;;7.80;6.97;;;23.10;99.90;;;;;;5050715;28;20420;-93
2023/06/23 08:06:04;;;;;;;6.57;5.93;;;23.20;99.90;;;;;;5048428;28;20462;-93
2023/06/23 08:08:30;;;;;;;8.07;6.77;;;23.30;99.90;;;;;;5050837;28;20412;-93
2023/06/23 08:10:55;;;;;;;7.20;6.50;;;23.40;99.90;;;;;;5052045;28;20408;-93
2023/06/23 08:13:21;;;;;;;7.70;6.90;;;23.50;99.90;;;;;;5054579;28;20400;-93
2023/06/23 08:15:47;;;;;;;8.13;6.68;;;23.50;99.90;;;;;;5053694;28;20407;-91
2023/06/23 08:18:13;;;;;;;8.07;7.27;;;23.50;99.90;;;;;;5053140;28;20920;-93
2023/06/23 08:20:38;;;;;;;7.32;6.63;;;23.50;99.90;;;;;;5054581;28;20764;-93
2023/06/23 08:23:04;;;;;;;5.50;4.77;;;23.40;99.90;;;;;;5052629;28;20399;-94
2023/06/23 08:25:30;;;;;;;6.53;5.93;;;23.30;99.90;;;;;;5054631;28;20840;-94
2023/06/23 08:27:55;;;;;;;7.90;6.40;;;23.40;99.90;;;;;;5052488;28;20765;-93
2023/06/23 08:30:27;;;;;;;5.80;5.00;;;23.40;99.90;;;;;;5054343;28;20483;-92
2023/06/23 08:32:53;;;;;;;6.00;4.90;;;23.60;99.90;;;;;;5052473;28;20426;-93
2023/06/23 08:35:18;;;;;;;5.30;4.80;;;23.70;99.90;;;;;;5053925;28;20411;-94
2023/06/23 08:37:44;;;;;;;6.33;4.70;;;23.70;99.90;;;;;;5053835;28;20480;-94
2023/06/23 08:40:10;;;;;;;7.00;5.18;;;23.90;99.90;;;;;;5052423;28;20406;-93
2023/06/23 08:42:37;;;;;;;6.47;4.80;;;23.60;99.90;;;;;;5054396;28;20383;-93
2023/06/23 08:45:03;;;;;;;6.32;4.53;;;23.70;99.90;;;;;;5051945;28;20415;-94
2023/06/23 08:47:31;;;;;;;5.53;4.53;;;23.90;99.90;;;;;;5054103;28;20479;-93
2023/06/23 08:49:57;;;;;;;5.10;3.95;;;24.10;99.90;;;;;;5051793;28;20411;-93
2023/06/23 08:52:24;;;;;;;3.80;3.40;;;24.20;99.90;;;;;;5053148;28;20399;-87
2023/06/23 08:54:50;;;;;;;4.72;3.80;;;24.10;99.70;;;;;;5067675;28;20408;-87
2023/06/23 08:57:16;;;;;;;6.03;3.40;;;23.90;99.90;;;;;;5069419;28;20433;-87
2023/06/23 08:59:42;;;;;;;3.55;3.25;;;24.20;99.90;;;;;;5070034;28;20402;-87
2023/06/23 09:02:08;;;;;;;3.92;3.53;;;24.30;99.90;;;;;;5063650;28;20898;-87
2023/06/23 09:04:34;;;;;;;5.37;4.10;;;24.40;99.90;;;;;;5067957;28;20400;-89
2023/06/23 09:06:59;;;;;;;6.07;4.60;;;24.60;99.90;;;;;;5052544;28;20454;-87
2023/06/23 09:09:25;;;;;;;5.50;4.00;;;24.80;99.90;;;;;;5054654;28;21296;-88
2023/06/23 09:11:52;;;;;;;6.55;3.80;;;24.80;99.90;;;;;;5052946;28;20889;-89
2023/06/23 09:14:18;;;;;;;6.07;3.83;;;24.90;99.90;;;;;;5067692;28;20426;-87
2023/06/23 09:16:45;;;;;;;5.00;4.00;;;25.00;99.90;;;;;;5051165;28;20798;-88
2023/06/23 09:19:11;;;;;;;4.10;3.70;;;25.20;99.90;;;;;;5066662;28;20483;-87
2023/06/23 09:21:40;;;;;;;5.38;3.80;;;24.90;99.20;;;;;;5052119;28;20399;-86
2023/06/23 09:24:07;;;;;;;4.75;4.03;;;24.60;99.90;;;;;;5050204;28;20420;-88
2023/06/23 09:26:48;;;;;;;4.03;3.45;;;24.80;99.90;;;;;;5054253;28;20427;-89
2023/06/23 09:29:19;;;;;;;4.63;3.70;;;24.80;99.90;;;;;;5052149;28;20433;-88
2023/06/23 09:31:50;;;;;;;5.13;4.10;;;24.70;99.00;;;;;;5067996;28;20755;-89
2023/06/23 09:34:25;;;;;;;4.97;4.30;;;24.90;98.20;;;;;;5053187;28;20406;-86
2023/06/23 09:36:52;;;;;;;5.10;4.18;;;24.80;99.50;;;;;;5051433;28;20507;-88
2023/06/23 09:39:19;;;;;;;4.55;4.00;;;25.00;98.50;;;;;;5070355;28;20402;-90
2023/06/23 09:41:47;;;;;;;4.90;4.10;;;24.80;99.90;;;;;;5051447;28;20921;-87
2023/06/23 09:44:13;;;;;;;4.70;4.15;;;24.80;99.90;;;;;;5069603;28;20405;-88
2023/06/23 09:46:41;;;;;;;4.68;4.28;;;25.00;99.60;;;;;;5069042;28;20489;-88
2023/06/23 09:49:07;;;;;;;4.75;4.22;;;25.00;96.90;;;;;;5050941;28;20920;-88
2023/06/23 09:51:37;;;;;;;4.18;3.67;;;25.20;99.90;;;;;;5069935;28;20414;-88
2023/06/23 09:54:03;;;;;;;4.18;3.63;;;25.30;97.80;;;;;;5050764;28;20406;-87
2023/06/23 09:56:29;;;;;;;5.53;3.55;;;25.50;97.40;;;;;;5053670;28;20914;-89
2023/06/23 09:58:55;;;;;;;6.27;3.63;;;25.80;92.00;;;;;;5067981;28;20464;-88
2023/06/23 10:01:21;;;;;;;4.80;3.67;;;25.90;96.90;;;;;;5069573;28;20398;-88
2023/06/23 10:03:48;;;;;;;5.07;3.42;;;26.00;95.90;;;;;;5068432;28;20926;-87
2023/06/23 10:06:22;;;;;;;3.50;3.20;;;26.10;90.30;;;;;;5051917;28;20417;-87
2023/06/23 10:08:48;;;;;;;4.38;3.35;;;26.30;96.00;;;;;;5069141;28;20479;-87
2023/06/23 10:11:17;;;;;;;5.07;3.58;;;26.50;87.50;;;;;;5067249;28;20457;-87
2023/06/23 10:13:47;;;;;;;3.95;3.45;;;26.70;89.10;;;;;;5069299;28;20748;-89
2023/06/23 10:16:13;;;;;;;4.45;3.40;;;26.90;92.60;;;;;;5066916;28;20405;-87
2023/06/23 10:18:39;;;;;;;4.57;3.00;;;27.00;75.10;;;;;;5052430;28;20808;-88
2023/06/23 10:21:05;;;;;;;4.22;3.63;;;27.10;61.30;;;;;;5068103;28;20401;-87
2023/06/23 10:23:32;;;;;;;3.67;3.05;;;27.10;71.60;;;;;;5067905;28;20467;-84
2023/06/23 10:25:59;;;;;;;3.55;3.03;;;27.10;64.30;;;;;;5069290;28;20406;-90
2023/06/23 10:28:28;;;;;;;4.43;3.67;;;26.90;57.60;;;;;;5050034;28;20453;-87
2023/06/23 10:30:54;;;;;;;3.88;3.30;;;26.90;71.60;;;;;;5065373;28;20399;-85
2023/06/23 10:33:21;;;;;;;3.65;3.08;;;26.90;59.70;;;;;;5045845;28;20400;-88
2023/06/23 10:35:48;;;;;;;5.03;3.47;;;27.00;57.70;;;;;;5065726;28;20428;-88
2023/06/23 10:38:22;;;;;;;3.90;3.28;;;27.10;56.00;;;;;;5064163;28;20404;-87
2023/06/23 10:40:50;;;;;;;4.53;3.33;;;27.30;74.00;;;;;;5064232;28;20422;-89
2023/06/23 10:43:18;;;;;;;5.70;4.10;;;27.50;63.60;;;;;;5065391;28;20420;-87
2023/06/23 10:45:45;;;;;;;4.40;4.00;;;27.80;61.20;;;;;;5062972;28;20408;-86
2023/06/23 10:48:12;;;;;;;4.47;3.70;;;28.10;59.70;;;;;;5065044;28;20992;-89
2023/06/23 10:50:40;;;;;;;5.03;4.00;;;28.30;57.50;;;;;;5063060;28;20900;-86
2023/06/23 10:53:16;;;;;;;4.75;3.85;;;28.40;54.30;;;;;;5048414;28;20418;-89
2023/06/23 10:55:44;;;;;;;4.68;3.65;;;28.50;58.80;;;;;;5064494;28;20416;-91
2023/06/23 10:58:16;;;;;;;4.73;4.23;;;28.80;56.40;;;;;;5046961;28;20407;-88
2023/06/23 11:00:52;;;;;;;5.13;3.80;;;28.90;55.20;;;;;;5065022;28;20465;-86
2023/06/23 11:03:28;;;;;;;3.75;2.90;;;29.00;54.70;;;;;;5046564;28;20422;-90
2023/06/23 11:05:55;;;;;;;4.35;3.33;;;29.20;52.80;;;;;;5068519;28;20410;-87
2023/06/23 11:08:44;;;;;;;4.60;3.60;;;29.20;53.30;;;;;;5050866;28;20426;-88
2023/06/23 11:11:15;;;;;;;4.22;3.05;;;29.20;53.60;;;;;;5067493;28;20448;-91
2023/06/23 11:13:44;;;;;;;4.30;2.53;;;29.30;49.70;;;;;;5068973;28;20749;-90
2023/06/23 11:16:13;;;;;;;3.45;3.00;;;29.40;48.10;;;;;;5050414;28;20398;-88
2023/06/23 11:18:51;;;;;;;3.20;2.42;;;29.40;48.40;;;;;;5068900;28;20774;-89
2023/06/23 11:21:29;;;;;;;2.35;1.75;;;29.30;49.20;;;;;;5067216;28;20450;-88
2023/06/23 11:24:13;;;;;;;2.53;2.10;;;29.50;46.30;;;;;;5051340;28;20458;-89
2023/06/23 11:26:49;;;;;;;4.27;2.23;;;29.80;47.30;;;;;;5069159;28;20406;-88
2023/06/23 11:29:17;;;;;;;3.25;2.20;;;30.10;46.10;;;;;;5050237;28;20430;-87
2023/06/23 11:32:04;;;;;;;4.00;2.03;;;30.10;45.30;;;;;;5051755;28;20390;-89
2023/06/23 11:34:48;;;;;;;3.25;1.70;;;30.40;43.40;;;;;;5050831;28;20469;-89
2023/06/23 11:37:14;;;;;;;4.80;2.00;;;30.40;48.00;;;;;;5066537;28;20432;-88
2023/06/23 11:39:41;;;;;;;3.20;1.90;;;30.40;44.60;;;;;;5051931;28;20425;-88
2023/06/23 11:42:07;;;;;;;3.30;1.90;;;30.60;43.30;;;;;;5066156;28;20457;-87
2023/06/23 11:44:32;;;;;;;2.78;2.00;;;30.70;45.20;;;;;;5068678;28;20477;-88
2023/06/23 11:46:58;;;;;;;2.57;2.00;;;30.90;44.00;;;;;;5066820;28;20402;-87
2023/06/23 11:49:24;;;;;;;3.23;1.73;;;31.00;43.60;;;;;;5067627;28;20466;-87
2023/06/23 11:51:50;;;;;;;2.75;1.73;;;31.10;44.00;;;;;;5067489;28;20398;-88
2023/06/23 11:54:16;;;;;;;4.40;1.77;;;31.10;41.20;;;;;;5066869;28;20489;-88
2023/06/23 11:56:42;;;;;;;4.07;1.83;;;30.90;40.00;;;;;;5068428;28;21072;-88
2023/06/23 11:59:10;;;;;;;3.75;2.10;;;30.70;41.20;;;;;;5066537;28;20905;-89
2023/06/23 12:01:36;;;;;;;4.78;2.20;;;30.60;42.90;;;;;;5052089;28;20808;-87
2023/06/23 12:04:05;;;;;;;4.35;1.90;;;30.80;42.60;;;;;;5066301;28;20488;-87
2023/06/23 12:06:35;;;;;;;2.78;1.80;;;31.00;41.40;;;;;;5067876;28;20406;-88
2023/06/23 12:09:02;;;;;;;3.33;2.22;;;31.20;42.60;;;;;;5050430;28;20421;-87
2023/06/23 12:11:29;;;;;;;3.40;2.00;;;31.30;43.40;;;;;;5066710;28;20491;-89
2023/06/23 12:13:57;;;;;;;2.40;1.38;;;31.50;39.90;;;;;;5051402;28;20448;-88
2023/06/23 12:16:22;;;;;;;2.65;1.67;;;31.50;40.90;;;;;;5066058;28;21292;-88
2023/06/23 12:18:50;;;;;;;3.95;1.70;;;31.30;39.50;;;;;;5068254;28;20440;-88
2023/06/23 12:21:21;;;;;;;3.10;1.60;;;31.10;40.20;;;;;;5065893;28;20405;-85
2023/06/23 12:23:47;;;;;;;3.35;1.50;;;31.30;38.30;;;;;;5051138;28;20463;-88
2023/06/23 12:26:14;;;;;;;2.75;1.40;;;31.20;41.00;;;;;;5066841;28;20412;-86
2023/06/23 12:28:40;;;;;;;3.07;1.50;;;31.00;40.50;;;;;;5066841;28;20491;-87
2023/06/23 12:31:06;;;;;;;2.58;1.35;;;30.70;38.60;;;;;;5051251;28;20440;-88
2023/06/23 12:33:33;;;;;;;3.17;1.20;;;30.40;40.60;;;;;;5049172;28;20449;-89
2023/06/23 12:36:14;;;;;;;2.40;1.17;;;30.30;41.90;;;;;;5067964;28;20398;-88
2023/06/23 12:38:40;;;;;;;1.90;1.10;;;30.40;39.20;;;;;;5049435;28;20986;-86
2023/06/23 12:41:27;;;;;;;2.25;1.13;;;30.60;38.60;;;;;;5067857;28;20406;-87
2023/06/23 12:43:54;;;;;;;2.53;1.10;;;30.50;40.30;;;;;;5051184;28;20782;-87
2023/06/23 12:46:28;;;;;;;2.43;1.20;;;30.50;44.30;;;;;;5065612;28;20405;-87